createdAt,value
2018-04-16T00:00:04.402Z,32.08
2018-04-16T00:01:06.877Z,34.05
2018-04-16T00:02:09.457Z,29.98
2018-04-16T00:03:11.940Z,36.83
2018-04-16T00:04:14.422Z,36.60
2018-04-16T00:05:16.932Z,33.78
2018-04-16T00:06:19.450Z,41.30
2018-04-16T00:07:22.670Z,41.15
2018-04-16T00:08:25.180Z,34.10
2018-04-16T00:09:27.660Z,33.03
2018-04-16T00:10:30.123Z,29.50
2018-04-16T00:11:32.740Z,34.83
2018-04-16T00:12:35.245Z,35.83
2018-04-16T00:13:37.762Z,34.47
2018-04-16T00:14:40.248Z,32.65
2018-04-16T00:15:42.725Z,32.30
2018-04-16T00:16:45.206Z,35.28
2018-04-16T00:17:48.472Z,45.00
2018-04-16T00:18:50.973Z,37.25
2018-04-16T00:19:54.512Z,35.55
2018-04-16T00:20:56.986Z,45.65
2018-04-16T00:21:59.473Z,45.50
2018-04-16T00:23:01.936Z,36.45
2018-04-16T00:24:04.441Z,29.52
2018-04-16T00:25:06.917Z,33.08
2018-04-16T00:26:09.401Z,35.92
2018-04-16T00:27:11.888Z,33.35
2018-04-16T00:28:14.782Z,34.95
2018-04-16T00:29:17.281Z,34.13
2018-04-16T00:30:20.521Z,34.28
2018-04-16T00:31:22.998Z,38.30
2018-04-16T00:32:31.286Z,36.15
2018-04-16T00:33:40.321Z,34.70
2018-04-16T00:34:48.633Z,37.35
2018-04-16T00:35:56.775Z,37.95
2018-04-16T00:37:05.791Z,30.95
2018-04-16T00:38:14.096Z,37.65
2018-04-16T00:39:22.812Z,32.22
2018-04-16T00:40:31.048Z,34.05
2018-04-16T00:41:39.125Z,37.13
2018-04-16T00:42:47.474Z,34.33
2018-04-16T00:43:55.770Z,36.67
2018-04-16T00:45:03.903Z,37.75
2018-04-16T00:46:12.021Z,35.33
2018-04-16T00:49:00.215Z,35.72
2018-04-16T00:50:08.440Z,39.13
2018-04-16T00:51:18.338Z,33.35
2018-04-16T00:52:26.617Z,34.47
2018-04-16T00:53:55.719Z,35.63
2018-04-16T00:55:03.910Z,32.42
2018-04-16T00:56:12.054Z,33.55
2018-04-16T00:57:20.216Z,34.83
2018-04-16T00:58:28.634Z,37.13
2018-04-16T00:59:36.757Z,37.85
2018-04-16T01:00:45.566Z,33.88
2018-04-16T01:02:08.957Z,37.60
2018-04-16T01:03:17.789Z,37.40
2018-04-16T01:04:26.867Z,38.13
2018-04-16T01:05:35.845Z,36.00
2018-04-16T01:06:44.902Z,35.00
2018-04-16T01:07:53.175Z,38.42
2018-04-16T01:09:02.220Z,34.58
2018-04-16T01:10:10.405Z,35.65
2018-04-16T01:11:19.419Z,35.95
2018-04-16T01:12:27.561Z,36.55
2018-04-16T01:13:35.885Z,33.30
2018-04-16T01:14:44.099Z,35.40
2018-04-16T01:15:52.373Z,35.05
2018-04-16T01:17:00.645Z,33.33
2018-04-16T01:18:08.882Z,37.28
2018-04-16T01:19:17.168Z,34.03
2018-04-16T01:20:26.133Z,39.33
2018-04-16T01:21:35.105Z,38.25
2018-04-16T01:22:43.358Z,33.30
2018-04-16T01:23:51.627Z,34.30
2018-04-16T01:26:34.588Z,35.78
2018-04-16T01:27:42.809Z,37.60
2018-04-16T01:28:51.909Z,38.17
2018-04-16T01:30:00.203Z,36.45
2018-04-16T01:31:08.363Z,36.10
2018-04-16T01:32:16.567Z,39.67
2018-04-16T01:33:24.773Z,35.70
2018-04-16T01:34:48.000Z,40.50
2018-04-16T01:36:09.036Z,35.60
2018-04-16T01:37:17.126Z,38.92
2018-04-16T01:38:25.325Z,39.25
2018-04-16T01:39:33.605Z,39.63
2018-04-16T01:40:42.486Z,35.85
2018-04-16T01:41:51.455Z,36.05
2018-04-16T01:43:15.454Z,37.75
2018-04-16T01:44:23.524Z,38.53
2018-04-16T01:45:32.516Z,41.03
2018-04-16T01:46:40.877Z,39.65
2018-04-16T01:48:03.065Z,42.88
2018-04-16T01:49:11.102Z,37.80
2018-04-16T01:50:19.426Z,38.30
2018-04-16T01:51:29.224Z,36.05
2018-04-16T01:52:37.477Z,38.30
2018-04-16T01:53:45.754Z,38.63
2018-04-16T01:54:54.783Z,39.85
2018-04-16T01:56:03.750Z,41.97
2018-04-16T01:57:11.981Z,37.33
2018-04-16T01:58:20.274Z,38.25
2018-04-16T01:59:28.556Z,42.60
2018-04-16T02:00:36.732Z,40.90
2018-04-16T02:01:45.597Z,39.67
2018-04-16T02:02:54.455Z,39.55
2018-04-16T02:04:02.687Z,39.70
2018-04-16T02:05:10.965Z,35.42
2018-04-16T02:06:20.053Z,37.78
2018-04-16T02:07:29.047Z,42.25
2018-04-16T02:08:37.239Z,38.97
2018-04-16T02:09:45.938Z,37.05
2018-04-16T02:10:55.005Z,41.80
2018-04-16T02:12:03.277Z,38.60
2018-04-16T02:13:12.369Z,35.75
2018-04-16T02:14:20.564Z,39.65
2018-04-16T02:15:28.629Z,40.53
2018-04-16T02:16:36.809Z,38.67
2018-04-16T02:19:20.276Z,40.22
2018-04-16T02:20:28.468Z,40.67
2018-04-16T02:21:36.775Z,37.55
2018-04-16T02:22:45.004Z,44.42
2018-04-16T02:23:53.268Z,44.47
2018-04-16T02:25:02.334Z,42.03
2018-04-16T02:26:10.572Z,37.53
2018-04-16T02:27:33.890Z,42.53
2018-04-16T02:28:42.868Z,38.60
2018-04-16T02:29:51.867Z,40.58
2018-04-16T02:31:00.086Z,40.35
2018-04-16T02:32:08.373Z,39.47
2018-04-16T02:33:16.621Z,41.80
2018-04-16T02:34:25.503Z,40.28
2018-04-16T02:35:33.763Z,41.30
2018-04-16T02:36:42.001Z,39.72
2018-04-16T02:37:50.956Z,39.58
2018-04-16T02:38:59.414Z,39.25
2018-04-16T02:40:07.588Z,42.70
2018-04-16T02:41:16.668Z,41.65
2018-04-16T02:42:25.523Z,41.75
2018-04-16T02:43:33.761Z,41.50
2018-04-16T02:44:41.960Z,39.08
2018-04-16T02:46:00.113Z,42.65
2018-04-16T02:47:08.217Z,39.17
2018-04-16T02:48:30.369Z,45.28
2018-04-16T02:49:38.536Z,46.78
2018-04-16T02:50:47.554Z,42.70
2018-04-16T02:51:55.863Z,42.03
2018-04-16T02:53:03.923Z,42.53
2018-04-16T02:54:12.010Z,40.47
2018-04-16T02:55:20.446Z,43.40
2018-04-16T02:56:28.656Z,42.72
2018-04-16T02:57:37.518Z,44.40
2018-04-16T02:58:45.626Z,43.03
2018-04-16T02:59:53.758Z,42.08
2018-04-16T03:01:01.821Z,40.80
2018-04-16T03:02:09.961Z,39.42
2018-04-16T03:03:18.908Z,48.40
2018-04-16T03:04:27.166Z,43.72
2018-04-16T03:05:35.426Z,40.55
2018-04-16T03:06:44.325Z,44.30
2018-04-16T03:07:52.508Z,45.45
2018-04-16T03:09:00.751Z,40.17
2018-04-16T03:10:08.908Z,42.10
2018-04-16T03:11:17.119Z,42.45
2018-04-16T03:12:26.176Z,39.97
2018-04-16T03:13:34.445Z,43.28
2018-04-16T03:14:43.309Z,47.40
2018-04-16T03:15:51.973Z,42.53
2018-04-16T03:17:00.041Z,40.63
2018-04-16T03:18:09.017Z,43.55
2018-04-16T03:19:18.058Z,43.87
2018-04-16T03:20:26.252Z,45.12
2018-04-16T03:21:35.198Z,46.30
2018-04-16T03:22:43.861Z,41.53
2018-04-16T03:23:52.020Z,42.62
2018-04-16T03:25:00.273Z,43.47
2018-04-16T03:26:08.527Z,38.65
2018-04-16T03:27:16.729Z,42.00
2018-04-16T03:28:24.972Z,43.53
2018-04-16T03:29:34.506Z,40.60
2018-04-16T03:30:42.732Z,41.15
2018-04-16T03:31:50.825Z,39.25
2018-04-16T03:32:59.135Z,41.22
2018-04-16T03:34:07.237Z,41.50
2018-04-16T03:35:15.351Z,37.83
2018-04-16T03:36:23.425Z,44.20
2018-04-16T03:37:31.609Z,39.08
2018-04-16T03:40:29.129Z,42.30
2018-04-16T03:41:37.689Z,44.35
2018-04-16T03:42:45.926Z,42.75
2018-04-16T03:43:54.173Z,39.10
2018-04-16T03:45:02.391Z,44.10
2018-04-16T03:46:10.609Z,41.55
2018-04-16T03:47:19.587Z,42.42
2018-04-16T03:48:27.637Z,46.85
2018-04-16T03:49:36.120Z,38.42
2018-04-16T03:50:44.242Z,45.60
2018-04-16T03:51:52.338Z,42.28
2018-04-16T03:53:13.682Z,42.38
2018-04-16T03:54:16.134Z,39.33
2018-04-16T03:55:38.313Z,43.55
2018-04-16T03:56:41.554Z,41.22
2018-04-16T03:57:44.790Z,43.47
2018-04-16T03:58:48.051Z,43.63
2018-04-16T03:59:50.517Z,44.17
2018-04-16T04:00:53.007Z,40.03
2018-04-16T04:01:55.468Z,43.33
2018-04-16T04:02:57.922Z,46.80
2018-04-16T04:04:00.441Z,41.05
2018-04-16T04:05:03.017Z,48.03
2018-04-16T04:06:05.523Z,48.03
2018-04-16T04:07:08.769Z,44.13
2018-04-16T04:08:12.005Z,41.90
2018-04-16T04:09:15.275Z,46.08
2018-04-16T04:10:17.745Z,48.85
2018-04-16T04:11:20.229Z,82.07
2018-04-16T04:12:22.737Z,113.28
2018-04-16T04:13:25.223Z,54.90
2018-04-16T04:14:27.713Z,55.35
2018-04-16T04:15:30.192Z,49.97
2018-04-16T04:16:33.452Z,46.40
2018-04-16T04:17:35.928Z,46.78
2018-04-16T04:18:38.402Z,65.32
2018-04-16T04:19:40.922Z,92.93
2018-04-16T04:20:44.140Z,43.50
2018-04-16T04:21:46.648Z,45.85
2018-04-16T04:23:01.016Z,43.53
2018-04-16T04:24:15.586Z,50.20
2018-04-16T04:25:30.754Z,50.75
2018-04-16T04:26:45.191Z,44.70
2018-04-16T04:27:59.747Z,69.90
2018-04-16T04:30:39.375Z,45.72
2018-04-16T04:31:41.841Z,48.95
2018-04-16T04:32:44.322Z,46.22
2018-04-16T04:33:46.993Z,48.47
2018-04-16T04:34:50.240Z,81.22
2018-04-16T04:35:52.715Z,51.25
2018-04-16T04:36:55.203Z,72.87
2018-04-16T04:37:58.457Z,60.20
2018-04-16T04:39:02.185Z,47.22
2018-04-16T04:40:04.686Z,48.45
2018-04-16T04:41:07.140Z,47.62
2018-04-16T04:42:09.614Z,45.75
2018-04-16T04:43:12.084Z,46.67
2018-04-16T04:44:15.360Z,52.20
2018-04-16T04:45:17.866Z,49.40
2018-04-16T04:46:21.105Z,52.72
2018-04-16T04:47:24.338Z,57.03
2018-04-16T04:48:26.852Z,67.75
2018-04-16T04:49:29.333Z,48.25
2018-04-16T04:50:32.555Z,48.95
2018-04-16T04:51:35.016Z,49.20
2018-04-16T04:52:37.490Z,46.05
2018-04-16T04:53:40.744Z,48.50
2018-04-16T04:54:43.250Z,46.88
2018-04-16T04:55:45.714Z,49.22
2018-04-16T04:56:48.205Z,48.22
2018-04-16T04:57:51.462Z,46.05
2018-04-16T04:58:54.702Z,43.28
2018-04-16T04:59:57.950Z,50.97
2018-04-16T05:01:00.414Z,53.42
2018-04-16T05:02:02.910Z,53.17
2018-04-16T05:03:05.471Z,45.30
2018-04-16T05:04:07.942Z,43.55
2018-04-16T05:05:11.167Z,49.13
2018-04-16T05:06:14.405Z,46.58
2018-04-16T05:07:16.885Z,47.42
2018-04-16T05:08:19.413Z,48.17
2018-04-16T05:09:21.891Z,47.92
2018-04-16T05:10:25.121Z,44.58
2018-04-16T05:11:27.603Z,49.55
2018-04-16T05:12:30.113Z,46.53
2018-04-16T05:13:32.670Z,55.28
2018-04-16T05:14:35.161Z,63.70
2018-04-16T05:15:37.635Z,53.55
2018-04-16T05:16:40.131Z,49.03
2018-04-16T05:17:42.733Z,49.30
2018-04-16T05:18:45.214Z,48.00
2018-04-16T05:19:47.683Z,43.10
2018-04-16T05:20:50.227Z,52.17
2018-04-16T05:21:52.708Z,58.38
2018-04-16T05:22:55.265Z,62.50
2018-04-16T05:23:57.914Z,50.70
2018-04-16T05:25:00.415Z,62.88
2018-04-16T05:26:02.893Z,54.15
2018-04-16T05:27:05.359Z,50.88
2018-04-16T05:28:09.372Z,54.28
2018-04-16T05:29:11.856Z,51.22
2018-04-16T05:30:14.327Z,52.50
2018-04-16T05:31:16.825Z,49.38
2018-04-16T05:32:19.309Z,67.22
2018-04-16T05:33:22.568Z,56.15
2018-04-16T05:34:25.057Z,49.95
2018-04-16T05:35:28.305Z,49.60
2018-04-16T05:36:30.788Z,49.53
2018-04-16T05:37:33.289Z,59.25
2018-04-16T05:38:35.765Z,46.58
2018-04-16T05:39:38.231Z,47.30
2018-04-16T05:40:41.455Z,45.75
2018-04-16T05:41:44.706Z,64.25
2018-04-16T05:42:47.967Z,51.35
2018-04-16T05:43:50.433Z,52.17
2018-04-16T05:44:52.923Z,52.13
2018-04-16T05:45:55.417Z,53.97
2018-04-16T05:46:58.629Z,56.63
2018-04-16T05:48:01.102Z,52.22
2018-04-16T05:49:03.623Z,48.92
2018-04-16T05:50:06.856Z,53.03
2018-04-16T05:51:10.129Z,51.10
2018-04-16T05:52:12.635Z,48.87
2018-04-16T05:53:15.166Z,54.63
2018-04-16T05:54:17.647Z,62.70
2018-04-16T05:55:20.112Z,51.53
2018-04-16T05:56:22.613Z,50.70
2018-04-16T05:57:25.896Z,56.40
2018-04-16T05:58:28.385Z,53.72
2018-04-16T05:59:31.624Z,49.95
2018-04-16T06:00:34.096Z,57.35
2018-04-16T06:01:36.606Z,57.67
2018-04-16T06:02:39.062Z,61.08
2018-04-16T06:03:41.521Z,56.83
2018-04-16T06:04:43.991Z,53.87
2018-04-16T06:05:46.466Z,64.18
2018-04-16T06:06:48.949Z,60.53
2018-04-16T06:07:51.437Z,64.60
2018-04-16T06:08:54.672Z,58.53
2018-04-16T06:09:57.910Z,63.17
2018-04-16T06:11:01.148Z,60.95
2018-04-16T06:12:03.616Z,58.30
2018-04-16T06:13:06.134Z,56.08
2018-04-16T06:14:08.606Z,58.22
2018-04-16T06:15:11.097Z,71.80
2018-04-16T06:16:13.569Z,73.40
2018-04-16T06:17:16.071Z,127.05
2018-04-16T06:18:18.590Z,63.97
2018-04-16T06:19:21.055Z,83.47
2018-04-16T06:20:24.301Z,69.32
2018-04-16T06:21:27.546Z,84.22
2018-04-16T06:22:30.781Z,106.30
2018-04-16T06:23:34.143Z,92.07
2018-04-16T06:24:37.371Z,93.40
2018-04-16T06:25:40.609Z,85.32
2018-04-16T06:26:43.850Z,90.90
2018-04-16T06:27:47.096Z,72.72
2018-04-16T06:28:50.357Z,225.23
2018-04-16T06:29:52.884Z,80.57
2018-04-16T06:30:55.363Z,75.43
2018-04-16T06:31:57.856Z,67.90
2018-04-16T06:33:00.354Z,125.53
2018-04-16T06:34:02.828Z,204.02
2018-04-16T06:35:05.356Z,73.53
2018-04-16T06:36:07.835Z,60.53
2018-04-16T06:37:10.337Z,194.02
2018-04-16T06:38:13.586Z,75.70
2018-04-16T06:39:16.840Z,139.20
2018-04-16T06:40:19.329Z,60.67
2018-04-16T06:41:21.793Z,65.45
2018-04-16T06:42:24.315Z,153.55
2018-04-16T06:43:27.562Z,93.85
2018-04-16T06:44:30.090Z,105.47
2018-04-16T06:45:33.413Z,91.20
2018-04-16T06:46:36.670Z,107.43
2018-04-16T06:47:39.897Z,84.47
2018-04-16T06:48:43.137Z,180.07
2018-04-16T06:49:46.376Z,86.30
2018-04-16T06:50:49.626Z,59.72
2018-04-16T06:51:53.244Z,135.80
2018-04-16T06:52:55.733Z,143.15
2018-04-16T06:53:58.395Z,199.68
2018-04-16T06:55:00.857Z,118.57
2018-04-16T06:56:04.096Z,71.72
2018-04-16T06:57:07.346Z,58.55
2018-04-16T06:58:10.611Z,60.03
2018-04-16T06:59:13.342Z,59.05
2018-04-16T07:00:15.865Z,58.05
2018-04-16T07:01:18.369Z,58.33
2018-04-16T07:02:21.639Z,56.60
2018-04-16T07:03:24.124Z,60.15
2018-04-16T07:04:26.625Z,60.28
2018-04-16T07:05:29.094Z,56.55
2018-04-16T07:06:32.322Z,55.25
2018-04-16T07:07:35.593Z,61.42
2018-04-16T07:08:38.367Z,56.15
2018-04-16T07:09:40.839Z,55.22
2018-04-16T07:10:43.365Z,53.47
2018-04-16T07:11:46.613Z,68.43
2018-04-16T07:12:49.137Z,64.45
2018-04-16T07:13:51.610Z,58.05
2018-04-16T07:14:54.489Z,60.30
2018-04-16T07:15:57.035Z,61.63
2018-04-16T07:16:59.488Z,59.55
2018-04-16T07:18:01.979Z,61.28
2018-04-16T07:19:04.481Z,60.40
2018-04-16T07:20:07.709Z,74.53
2018-04-16T07:21:10.629Z,59.53
2018-04-16T07:22:13.093Z,62.95
2018-04-16T07:23:15.669Z,69.35
2018-04-16T07:24:18.157Z,61.05
2018-04-16T07:25:20.628Z,57.22
2018-04-16T07:26:23.199Z,63.85
2018-04-16T07:27:25.735Z,63.78
2018-04-16T07:28:28.251Z,61.25
2018-04-16T07:29:30.783Z,66.37
2018-04-16T07:30:33.246Z,62.15
2018-04-16T07:31:36.467Z,69.87
2018-04-16T07:32:38.980Z,57.85
2018-04-16T07:33:41.472Z,71.20
2018-04-16T07:34:44.709Z,66.90
2018-04-16T07:35:47.946Z,66.60
2018-04-16T07:36:50.423Z,69.72
2018-04-16T07:37:52.920Z,65.55
2018-04-16T07:38:55.397Z,66.28
2018-04-16T07:39:57.870Z,69.20
2018-04-16T07:41:00.334Z,72.80
2018-04-16T07:42:02.927Z,70.75
2018-04-16T07:43:05.405Z,78.37
2018-04-16T07:44:07.864Z,83.45
2018-04-16T07:45:11.147Z,73.37
2018-04-16T07:46:13.616Z,74.87
2018-04-16T07:47:16.111Z,75.90
2018-04-16T07:48:18.594Z,75.87
2018-04-16T07:49:21.178Z,80.78
2018-04-16T07:50:23.655Z,86.05
2018-04-16T07:51:26.169Z,76.82
2018-04-16T07:52:28.705Z,85.43
2018-04-16T07:53:31.332Z,81.25
2018-04-16T07:54:33.858Z,77.85
2018-04-16T07:55:36.323Z,76.45
2018-04-16T07:56:38.787Z,77.00
2018-04-16T07:57:42.148Z,82.05
2018-04-16T07:58:44.630Z,73.30
2018-04-16T07:59:47.107Z,73.18
2018-04-16T08:00:49.576Z,75.68
2018-04-16T08:01:52.063Z,86.07
2018-04-16T08:02:54.558Z,76.47
2018-04-16T08:03:57.797Z,85.07
2018-04-16T08:05:01.283Z,80.03
2018-04-16T08:06:04.512Z,78.90
2018-04-16T08:07:06.992Z,80.80
2018-04-16T08:08:09.476Z,75.75
2018-04-16T08:09:11.947Z,80.25
2018-04-16T08:10:14.452Z,83.47
2018-04-16T08:11:16.929Z,75.35
2018-04-16T08:12:19.406Z,89.03
2018-04-16T08:13:21.869Z,91.78
2018-04-16T08:14:25.437Z,78.68
2018-04-16T08:15:27.936Z,80.72
2018-04-16T08:16:31.175Z,77.10
2018-04-16T08:17:34.425Z,81.12
2018-04-16T08:18:37.662Z,80.25
2018-04-16T08:19:40.897Z,74.85
2018-04-16T08:20:44.136Z,79.03
2018-04-16T08:21:46.604Z,79.95
2018-04-16T08:22:49.119Z,74.97
2018-04-16T08:23:51.608Z,81.05
2018-04-16T08:24:54.093Z,76.40
2018-04-16T08:25:56.571Z,69.47
2018-04-16T08:26:59.082Z,65.68
2018-04-16T08:28:01.535Z,73.57
2018-04-16T08:29:04.012Z,72.57
2018-04-16T08:30:06.472Z,74.00
2018-04-16T08:31:09.708Z,69.72
2018-04-16T08:32:12.952Z,75.20
2018-04-16T08:33:16.284Z,71.70
2018-04-16T08:34:18.706Z,66.82
2018-04-16T08:35:21.198Z,60.95
2018-04-16T08:36:23.663Z,63.35
2018-04-16T08:37:26.434Z,67.37
2018-04-16T08:38:28.945Z,64.78
2018-04-16T08:39:31.404Z,64.82
2018-04-16T08:40:33.871Z,68.45
2018-04-16T08:41:37.149Z,63.35
2018-04-16T08:42:40.234Z,77.20
2018-04-16T08:43:43.326Z,65.95
2018-04-16T08:44:45.859Z,67.18
2018-04-16T08:45:48.349Z,71.82
2018-04-16T08:46:51.583Z,70.00
2018-04-16T08:47:54.803Z,75.37
2018-04-16T08:48:57.281Z,68.60
2018-04-16T08:49:59.773Z,153.27
2018-04-16T08:51:02.254Z,115.12
2018-04-16T08:52:04.749Z,212.85
2018-04-16T08:53:07.983Z,234.20
2018-04-16T08:54:11.883Z,149.30
2018-04-16T08:55:14.469Z,78.68
2018-04-16T08:56:17.696Z,70.50
2018-04-16T08:57:20.961Z,64.15
2018-04-16T08:58:24.181Z,70.00
2018-04-16T08:59:27.438Z,101.90
2018-04-16T09:00:30.706Z,131.65
2018-04-16T09:01:33.193Z,107.20
2018-04-16T09:02:36.464Z,118.65
2018-04-16T09:03:38.968Z,148.90
2018-04-16T09:04:42.226Z,140.48
2018-04-16T09:05:44.765Z,90.07
2018-04-16T09:06:47.277Z,78.82
2018-04-16T09:07:50.555Z,95.12
2018-04-16T09:08:53.026Z,122.20
2018-04-16T09:09:56.269Z,84.45
2018-04-16T09:10:59.548Z,92.55
2018-04-16T09:12:02.156Z,79.60
2018-04-16T09:13:04.704Z,76.65
2018-04-16T09:14:07.190Z,73.97
2018-04-16T09:15:09.671Z,78.78
2018-04-16T09:16:12.141Z,100.30
2018-04-16T09:17:15.384Z,83.60
2018-04-16T09:18:17.839Z,76.90
2018-04-16T09:19:20.313Z,89.62
2018-04-16T09:20:22.840Z,72.85
2018-04-16T09:21:25.439Z,74.50
2018-04-16T09:22:27.921Z,77.12
2018-04-16T09:23:31.148Z,77.93
2018-04-16T09:24:34.415Z,76.45
2018-04-16T09:25:36.984Z,75.25
2018-04-16T09:26:39.772Z,69.50
2018-04-16T09:27:42.235Z,92.62
2018-04-16T09:28:44.705Z,73.32
2018-04-16T09:29:47.994Z,70.65
2018-04-16T09:30:50.473Z,77.82
2018-04-16T09:31:53.733Z,91.78
2018-04-16T09:32:56.985Z,69.30
2018-04-16T09:34:00.205Z,78.22
2018-04-16T09:35:03.573Z,75.40
2018-04-16T09:36:06.073Z,79.43
2018-04-16T09:37:09.314Z,77.62
2018-04-16T09:38:12.602Z,68.43
2018-04-16T09:39:15.082Z,74.43
2018-04-16T09:40:18.457Z,71.47
2018-04-16T09:41:20.938Z,68.85
2018-04-16T09:42:23.413Z,75.45
2018-04-16T09:43:25.883Z,70.22
2018-04-16T09:44:28.363Z,73.72
2018-04-16T09:45:30.872Z,67.80
2018-04-16T09:46:33.394Z,70.57
2018-04-16T09:47:35.922Z,70.28
2018-04-16T09:48:38.449Z,68.45
2018-04-16T09:49:40.923Z,70.87
2018-04-16T09:50:43.504Z,67.97
2018-04-16T09:51:45.986Z,62.67
2018-04-16T09:52:48.561Z,60.88
2018-04-16T09:53:51.059Z,64.93
2018-04-16T09:54:54.314Z,63.90
2018-04-16T09:55:57.569Z,67.45
2018-04-16T09:57:00.076Z,63.67
2018-04-16T09:58:03.378Z,63.53
2018-04-16T09:59:05.884Z,59.35
2018-04-16T10:00:08.336Z,62.22
2018-04-16T10:01:16.571Z,60.45
2018-04-16T10:02:24.942Z,65.40
2018-04-16T10:03:27.462Z,57.38
2018-04-16T10:04:29.925Z,63.45
2018-04-16T10:05:33.193Z,62.28
2018-04-16T10:06:35.734Z,64.22
2018-04-16T10:07:38.243Z,60.50
2018-04-16T10:08:40.786Z,55.20
2018-04-16T10:09:43.292Z,63.17
2018-04-16T10:10:45.778Z,56.83
2018-04-16T10:12:56.798Z,60.95
2018-04-16T10:14:00.059Z,54.90
2018-04-16T10:15:02.557Z,55.78
2018-04-16T10:16:05.852Z,58.92
2018-04-16T10:17:08.344Z,59.22
2018-04-16T10:18:10.847Z,59.13
2018-04-16T10:19:13.332Z,60.88
2018-04-16T10:20:15.812Z,50.45
2018-04-16T10:21:19.069Z,55.53
2018-04-16T10:22:22.015Z,52.58
2018-04-16T10:23:24.918Z,55.22
2018-04-16T10:24:27.613Z,54.08
2018-04-16T10:25:30.115Z,52.35
2018-04-16T10:26:32.720Z,54.88
2018-04-16T10:27:35.190Z,57.50
2018-04-16T10:28:37.711Z,62.90
2018-04-16T10:29:40.238Z,53.58
2018-04-16T10:30:42.718Z,57.85
2018-04-16T10:31:45.205Z,58.85
2018-04-16T10:32:47.687Z,59.17
2018-04-16T10:33:50.146Z,52.92
2018-04-16T10:34:53.007Z,54.40
2018-04-16T10:35:56.803Z,51.70
2018-04-16T10:36:59.271Z,53.28
2018-04-16T10:38:01.756Z,54.25
2018-04-16T10:39:04.256Z,53.25
2018-04-16T10:40:06.723Z,53.47
2018-04-16T10:41:09.248Z,52.03
2018-04-16T10:42:11.732Z,52.40
2018-04-16T10:43:14.769Z,49.88
2018-04-16T10:44:17.271Z,52.08
2018-04-16T10:45:19.818Z,57.62
2018-04-16T10:46:22.273Z,53.22
2018-04-16T10:47:24.775Z,49.70
2018-04-16T10:48:27.254Z,52.15
2018-04-16T10:49:29.720Z,51.70
2018-04-16T10:50:32.214Z,49.72
2018-04-16T10:51:34.866Z,56.55
2018-04-16T10:52:37.362Z,51.70
2018-04-16T10:53:39.845Z,47.83
2018-04-16T10:54:43.086Z,48.20
2018-04-16T10:55:45.551Z,47.10
2018-04-16T10:56:48.040Z,45.80
2018-04-16T10:57:50.547Z,50.00
2018-04-16T10:58:53.048Z,43.03
2018-04-16T10:59:56.307Z,45.63
2018-04-16T11:00:59.520Z,47.90
2018-04-16T11:02:02.068Z,52.22
2018-04-16T11:03:05.357Z,45.90
2018-04-16T11:04:07.864Z,47.92
2018-04-16T11:05:10.328Z,46.20
2018-04-16T11:06:12.840Z,44.63
2018-04-16T11:07:15.316Z,46.47
2018-04-16T11:08:18.540Z,49.78
2018-04-16T11:09:21.796Z,46.00
2018-04-16T11:10:24.273Z,44.10
2018-04-16T11:11:26.723Z,39.55
2018-04-16T11:12:29.965Z,42.35
2018-04-16T11:13:33.237Z,36.53
2018-04-16T11:14:35.712Z,41.30
2018-04-16T11:15:38.197Z,38.92
2018-04-16T11:16:40.670Z,38.63
2018-04-16T11:17:43.181Z,45.00
2018-04-16T11:18:45.644Z,42.42
2018-04-16T11:19:48.923Z,41.03
2018-04-16T11:20:51.481Z,42.38
2018-04-16T11:21:54.449Z,39.67
2018-04-16T11:22:57.687Z,47.90
2018-04-16T11:24:00.961Z,43.00
2018-04-16T11:25:03.475Z,41.17
2018-04-16T11:26:05.972Z,40.53
2018-04-16T11:27:08.516Z,40.42
2018-04-16T11:28:11.747Z,45.15
2018-04-16T11:29:14.984Z,44.83
2018-04-16T11:30:17.448Z,48.67
2018-04-16T11:31:19.979Z,42.03
2018-04-16T11:32:22.520Z,45.75
2018-04-16T11:33:25.802Z,45.08
2018-04-16T11:34:28.271Z,40.97
2018-04-16T11:35:30.786Z,39.28
2018-04-16T11:36:33.244Z,39.40
2018-04-16T11:37:36.477Z,37.95
2018-04-16T11:38:38.971Z,44.45
2018-04-16T11:39:42.377Z,47.22
2018-04-16T11:40:44.926Z,37.03
2018-04-16T11:41:48.176Z,37.47
2018-04-16T11:42:51.432Z,37.25
2018-04-16T11:43:53.979Z,39.20
2018-04-16T11:44:56.464Z,35.47
2018-04-16T11:45:59.705Z,39.30
2018-04-16T11:47:02.980Z,41.83
2018-04-16T11:48:05.470Z,38.33
2018-04-16T11:49:07.990Z,34.92
2018-04-16T11:50:10.519Z,37.55
2018-04-16T11:51:13.018Z,36.78
2018-04-16T11:52:15.537Z,34.95
2018-04-16T11:53:17.997Z,36.20
2018-04-16T11:54:21.275Z,37.55
2018-04-16T11:55:23.745Z,37.58
2018-04-16T11:56:26.317Z,34.20
2018-04-16T11:57:28.890Z,32.67
2018-04-16T11:58:31.370Z,33.30
2018-04-16T11:59:33.829Z,34.22
2018-04-16T12:00:36.337Z,33.92
2018-04-16T12:01:38.873Z,33.53
2018-04-16T12:02:41.371Z,32.58
2018-04-16T12:03:43.842Z,34.80
2018-04-16T12:04:46.298Z,35.05
2018-04-16T12:05:49.537Z,32.63
2018-04-16T12:06:52.783Z,41.17
2018-04-16T12:07:56.137Z,31.05
2018-04-16T12:08:59.509Z,33.30
2018-04-16T12:10:02.758Z,34.90
2018-04-16T12:11:05.229Z,33.42
2018-04-16T12:12:07.811Z,33.55
2018-04-16T12:13:10.287Z,34.22
2018-04-16T12:14:13.541Z,32.25
2018-04-16T12:15:16.792Z,35.13
2018-04-16T12:16:19.275Z,29.08
2018-04-16T12:17:21.729Z,33.70
2018-04-16T12:18:24.999Z,27.37
2018-04-16T12:19:27.497Z,29.50
2018-04-16T12:20:30.010Z,32.95
2018-04-16T12:21:32.513Z,33.33
2018-04-16T12:22:35.007Z,35.92
2018-04-16T12:23:37.548Z,30.05
2018-04-16T12:24:40.026Z,33.80
2018-04-16T12:25:43.300Z,39.05
2018-04-16T12:26:45.807Z,33.67
2018-04-16T12:27:49.091Z,33.25
2018-04-16T12:28:51.594Z,36.72
2018-04-16T12:29:54.083Z,30.75
2018-04-16T12:30:57.362Z,39.38
2018-04-16T12:32:00.416Z,31.90
2018-04-16T12:33:02.933Z,31.23
2018-04-16T12:34:06.133Z,27.77
2018-04-16T12:35:09.510Z,31.62
2018-04-16T12:36:13.665Z,32.05
2018-04-16T12:37:16.234Z,31.02
2018-04-16T12:38:18.788Z,30.70
2018-04-16T12:39:21.979Z,31.80
2018-04-16T12:40:24.461Z,39.25
2018-04-16T12:41:27.727Z,33.78
2018-04-16T12:42:30.264Z,30.70
2018-04-16T12:43:32.743Z,31.65
2018-04-16T12:44:35.209Z,30.20
2018-04-16T12:45:37.719Z,29.70
2018-04-16T12:46:40.258Z,29.52
2018-04-16T12:47:42.734Z,33.22
2018-04-16T12:48:45.237Z,32.22
2018-04-16T12:49:47.732Z,33.83
2018-04-16T12:50:50.272Z,26.70
2018-04-16T12:51:52.785Z,29.25
2018-04-16T12:52:55.252Z,35.20
2018-04-16T12:53:57.818Z,31.00
2018-04-16T12:55:01.082Z,30.33
2018-04-16T12:56:03.599Z,34.13
2018-04-16T12:57:06.099Z,27.02
2018-04-16T12:58:08.580Z,28.10
2018-04-16T12:59:11.131Z,29.95
2018-04-16T13:00:13.610Z,26.40
2018-04-16T13:01:16.839Z,27.25
2018-04-16T13:02:19.334Z,27.35
2018-04-16T13:03:21.898Z,27.70
2018-04-16T13:04:24.396Z,30.10
2018-04-16T13:05:26.993Z,31.17
2018-04-16T13:06:29.464Z,30.23
2018-04-16T13:07:32.719Z,25.80
2018-04-16T13:08:35.213Z,30.12
2018-04-16T13:09:37.704Z,32.88
2018-04-16T13:10:40.630Z,27.58
2018-04-16T13:11:43.233Z,31.87
2018-04-16T13:12:45.712Z,31.27
2018-04-16T13:13:48.183Z,32.58
2018-04-16T13:14:50.666Z,34.53
2018-04-16T13:15:53.233Z,30.70
2018-04-16T13:16:55.739Z,30.27
2018-04-16T13:17:58.993Z,27.20
2018-04-16T13:19:01.444Z,42.38
2018-04-16T13:20:03.974Z,30.05
2018-04-16T13:21:06.475Z,27.75
2018-04-16T13:22:08.953Z,30.98
2018-04-16T13:23:11.418Z,26.77
2018-04-16T13:24:13.890Z,29.77
2018-04-16T13:25:16.574Z,37.92
2018-04-16T13:26:19.083Z,32.28
2018-04-16T13:27:22.356Z,31.70
2018-04-16T13:28:24.888Z,31.02
2018-04-16T13:29:27.394Z,29.73
2018-04-16T13:30:29.884Z,32.28
2018-04-16T13:31:32.458Z,32.88
2018-04-16T13:32:34.923Z,35.50
2018-04-16T13:33:37.402Z,31.30
2018-04-16T13:34:39.877Z,28.90
2018-04-16T13:35:42.375Z,31.17
2018-04-16T13:36:44.861Z,27.35
2018-04-16T13:37:48.100Z,32.20
2018-04-16T13:38:51.367Z,33.10
2018-04-16T13:39:53.889Z,36.97
2018-04-16T13:40:56.400Z,37.20
2018-04-16T13:41:59.653Z,30.45
2018-04-16T13:43:02.148Z,38.38
2018-04-16T13:44:04.609Z,37.40
2018-04-16T13:45:07.101Z,38.50
2018-04-16T13:46:10.008Z,36.55
2018-04-16T13:47:13.209Z,33.08
2018-04-16T13:48:15.744Z,29.85
2018-04-16T13:49:18.355Z,34.88
2018-04-16T13:50:20.826Z,30.33
2018-04-16T13:51:23.285Z,29.98
2018-04-16T13:52:26.644Z,30.70
2018-04-16T13:53:29.105Z,31.58
2018-04-16T13:54:31.580Z,28.42
2018-04-16T13:55:34.836Z,31.77